sensor_id;sensor_type;location;lat;lon;timestamp;pressure;altitude;pressure_sealevel;temperature;humidity
41886;BME280;27567;43.084;25.616;2023-06-04T00:02:43;98416.03;;;15.50;100.00
41886;BME280;27567;43.084;25.616;2023-06-04T00:05:26;98418.25;;;15.53;100.00
41886;BME280;27567;43.084;25.616;2023-06-04T00:08:11;98425.56;;;15.52;100.00
41886;BME280;27567;43.084;25.616;2023-06-04T00:10:54;98427.41;;;15.52;100.00
41886;BME280;27567;43.084;25.616;2023-06-04T00:13:38;98424.72;;;15.52;100.00
41886;BME280;27567;43.084;25.616;2023-06-04T00:16:22;98429.97;;;15.46;100.00
41886;BME280;27567;43.084;25.616;2023-06-04T00:19:06;98429.97;;;15.46;100.00
41886;BME280;27567;43.084;25.616;2023-06-04T00:21:50;98440.47;;;15.55;100.00
41886;BME280;27567;43.084;25.616;2023-06-04T00:24:37;98440.59;;;15.60;100.00
41886;BME280;27567;43.084;25.616;2023-06-04T00:27:21;98438.50;;;15.62;100.00
41886;BME280;27567;43.084;25.616;2023-06-04T00:30:06;98433.69;;;15.64;100.00
41886;BME280;27567;43.084;25.616;2023-06-04T00:32:50;98440.16;;;15.75;100.00
41886;BME280;27567;43.084;25.616;2023-06-04T00:35:34;98442.63;;;15.76;100.00
41886;BME280;27567;43.084;25.616;2023-06-04T00:38:18;98428.06;;;15.77;100.00
41886;BME280;27567;43.084;25.616;2023-06-04T00:41:02;98435.69;;;15.69;100.00
41886;BME280;27567;43.084;25.616;2023-06-04T00:43:46;98438.59;;;15.67;100.00
41886;BME280;27567;43.084;25.616;2023-06-04T00:46:39;98440.72;;;15.65;100.00
41886;BME280;27567;43.084;25.616;2023-06-04T00:49:23;98438.97;;;15.59;100.00
41886;BME280;27567;43.084;25.616;2023-06-04T00:52:08;98438.25;;;15.63;100.00
41886;BME280;27567;43.084;25.616;2023-06-04T00:54:53;98435.78;;;15.62;100.00
41886;BME280;27567;43.084;25.616;2023-06-04T00:57:40;98429.34;;;15.63;100.00
41886;BME280;27567;43.084;25.616;2023-06-04T01:00:24;98435.06;;;15.55;100.00
41886;BME280;27567;43.084;25.616;2023-06-04T01:03:14;98433.31;;;15.60;100.00
41886;BME280;27567;43.084;25.616;2023-06-04T01:08:53;98429.78;;;15.60;100.00
41886;BME280;27567;43.084;25.616;2023-06-04T01:11:39;98429.19;;;15.58;100.00
41886;BME280;27567;43.084;25.616;2023-06-04T01:14:24;98422.94;;;15.45;100.00
41886;BME280;27567;43.084;25.616;2023-06-04T01:25:58;98418.16;;;15.17;100.00
41886;BME280;27567;43.084;25.616;2023-06-04T01:28:47;98408.78;;;15.20;100.00
41886;BME280;27567;43.084;25.616;2023-06-04T01:31:32;98420.13;;;15.10;100.00
41886;BME280;27567;43.084;25.616;2023-06-04T01:34:19;98421.19;;;15.09;100.00
41886;BME280;27567;43.084;25.616;2023-06-04T01:37:03;98423.16;;;15.01;100.00
41886;BME280;27567;43.084;25.616;2023-06-04T01:39:47;98425.63;;;15.03;100.00
41886;BME280;27567;43.084;25.616;2023-06-04T01:42:31;98429.81;;;14.99;100.00
41886;BME280;27567;43.084;25.616;2023-06-04T01:45:15;98435.00;;;15.00;100.00
41886;BME280;27567;43.084;25.616;2023-06-04T01:48:02;98427.38;;;14.97;100.00
41886;BME280;27567;43.084;25.616;2023-06-04T01:50:46;98435.06;;;14.94;100.00
41886;BME280;27567;43.084;25.616;2023-06-04T01:53:30;98432.91;;;15.02;100.00
41886;BME280;27567;43.084;25.616;2023-06-04T01:56:15;98433.28;;;15.06;100.00
41886;BME280;27567;43.084;25.616;2023-06-04T01:58:58;98432.53;;;14.99;100.00
41886;BME280;27567;43.084;25.616;2023-06-04T02:01:44;98436.41;;;15.03;100.00
41886;BME280;27567;43.084;25.616;2023-06-04T02:04:28;98436.97;;;14.93;100.00
41886;BME280;27567;43.084;25.616;2023-06-04T02:07:12;98430.44;;;15.01;100.00
41886;BME280;27567;43.084;25.616;2023-06-04T02:10:01;98448.56;;;14.94;100.00
41886;BME280;27567;43.084;25.616;2023-06-04T02:13:00;98442.91;;;14.83;100.00
41886;BME280;27567;43.084;25.616;2023-06-04T02:15:45;98454.25;;;14.73;100.00
41886;BME280;27567;43.084;25.616;2023-06-04T02:18:29;98459.84;;;14.72;100.00
41886;BME280;27567;43.084;25.616;2023-06-04T02:21:13;98458.25;;;14.64;100.00
41886;BME280;27567;43.084;25.616;2023-06-04T02:23:57;98466.56;;;14.63;100.00
41886;BME280;27567;43.084;25.616;2023-06-04T02:26:41;98464.94;;;14.62;100.00
41886;BME280;27567;43.084;25.616;2023-06-04T02:29:25;98467.38;;;14.63;100.00
41886;BME280;27567;43.084;25.616;2023-06-04T02:32:11;98470.78;;;14.77;100.00
41886;BME280;27567;43.084;25.616;2023-06-04T02:34:55;98471.38;;;14.61;100.00
41886;BME280;27567;43.084;25.616;2023-06-04T02:37:40;98466.56;;;14.63;100.00
41886;BME280;27567;43.084;25.616;2023-06-04T02:40:25;98467.56;;;14.87;100.00
41886;BME280;27567;43.084;25.616;2023-06-04T02:43:09;98467.78;;;14.85;100.00
41886;BME280;27567;43.084;25.616;2023-06-04T02:45:53;98472.63;;;14.58;100.00
41886;BME280;27567;43.084;25.616;2023-06-04T02:48:37;98477.72;;;14.48;100.00
41886;BME280;27567;43.084;25.616;2023-06-04T02:51:21;98471.56;;;14.40;100.00
41886;BME280;27567;43.084;25.616;2023-06-04T02:54:05;98473.66;;;14.38;100.00
41886;BME280;27567;43.084;25.616;2023-06-04T02:56:49;98480.28;;;14.42;100.00
41886;BME280;27567;43.084;25.616;2023-06-04T02:59:33;98477.41;;;14.37;100.00
41886;BME280;27567;43.084;25.616;2023-06-04T03:02:17;98475.84;;;14.30;100.00
41886;BME280;27567;43.084;25.616;2023-06-04T03:05:01;98474.75;;;14.12;100.00
41886;BME280;27567;43.084;25.616;2023-06-04T03:07:46;98473.88;;;14.18;100.00
41886;BME280;27567;43.084;25.616;2023-06-04T03:10:31;98484.06;;;14.16;100.00
41886;BME280;27567;43.084;25.616;2023-06-04T03:13:15;98471.38;;;14.17;100.00
41886;BME280;27567;43.084;25.616;2023-06-04T03:15:59;98483.00;;;14.17;100.00
41886;BME280;27567;43.084;25.616;2023-06-04T03:18:44;98477.56;;;14.24;100.00
41886;BME280;27567;43.084;25.616;2023-06-04T03:21:28;98487.47;;;14.30;100.00
41886;BME280;27567;43.084;25.616;2023-06-04T03:24:14;98480.63;;;14.27;100.00
41886;BME280;27567;43.084;25.616;2023-06-04T03:26:59;98483.47;;;14.33;100.00
41886;BME280;27567;43.084;25.616;2023-06-04T03:29:43;98476.94;;;14.22;100.00
41886;BME280;27567;43.084;25.616;2023-06-04T03:32:27;98473.72;;;14.13;100.00
41886;BME280;27567;43.084;25.616;2023-06-04T03:35:11;98483.19;;;13.97;100.00
41886;BME280;27567;43.084;25.616;2023-06-04T03:37:55;98482.94;;;13.98;100.00
41886;BME280;27567;43.084;25.616;2023-06-04T03:40:39;98489.94;;;14.06;100.00
41886;BME280;27567;43.084;25.616;2023-06-04T03:43:23;98489.19;;;13.99;100.00
41886;BME280;27567;43.084;25.616;2023-06-04T03:46:07;98488.81;;;13.95;100.00
41886;BME280;27567;43.084;25.616;2023-06-04T03:48:51;98484.38;;;13.76;100.00
41886;BME280;27567;43.084;25.616;2023-06-04T03:51:36;98486.81;;;13.84;100.00
41886;BME280;27567;43.084;25.616;2023-06-04T03:54:21;98489.97;;;14.00;100.00
41886;BME280;27567;43.084;25.616;2023-06-04T03:57:05;98498.41;;;14.10;100.00
41886;BME280;27567;43.084;25.616;2023-06-04T03:59:49;98494.13;;;14.02;100.00
41886;BME280;27567;43.084;25.616;2023-06-04T04:02:34;98507.97;;;14.06;100.00
41886;BME280;27567;43.084;25.616;2023-06-04T04:05:17;98499.94;;;14.24;100.00
41886;BME280;27567;43.084;25.616;2023-06-04T04:08:01;98507.97;;;14.31;100.00
41886;BME280;27567;43.084;25.616;2023-06-04T04:10:45;98506.13;;;14.50;100.00
41886;BME280;27567;43.084;25.616;2023-06-04T04:13:29;98513.59;;;14.73;100.00
41886;BME280;27567;43.084;25.616;2023-06-04T04:16:13;98505.59;;;14.85;100.00
41886;BME280;27567;43.084;25.616;2023-06-04T04:18:57;98511.94;;;14.72;100.00
41886;BME280;27567;43.084;25.616;2023-06-04T04:21:41;98512.91;;;14.78;100.00
41886;BME280;27567;43.084;25.616;2023-06-04T04:24:27;98527.47;;;15.14;100.00
41886;BME280;27567;43.084;25.616;2023-06-04T04:27:11;98514.63;;;15.10;100.00
41886;BME280;27567;43.084;25.616;2023-06-04T04:29:55;98520.69;;;15.24;100.00
41886;BME280;27567;43.084;25.616;2023-06-04T04:32:43;98529.09;;;15.34;100.00
41886;BME280;27567;43.084;25.616;2023-06-04T04:35:32;98529.81;;;15.41;100.00
41886;BME280;27567;43.084;25.616;2023-06-04T04:38:16;98534.09;;;15.49;100.00
41886;BME280;27567;43.084;25.616;2023-06-04T04:41:03;98522.75;;;15.71;100.00
41886;BME280;27567;43.084;25.616;2023-06-04T04:43:47;98533.59;;;15.83;100.00
41886;BME280;27567;43.084;25.616;2023-06-04T04:46:32;98538.97;;;15.71;100.00
41886;BME280;27567;43.084;25.616;2023-06-04T04:49:16;98547.28;;;15.69;100.00
41886;BME280;27567;43.084;25.616;2023-06-04T04:52:00;98541.44;;;15.72;100.00
41886;BME280;27567;43.084;25.616;2023-06-04T04:54:43;98545.16;;;15.90;100.00
41886;BME280;27567;43.084;25.616;2023-06-04T04:57:27;98548.38;;;15.99;100.00
41886;BME280;27567;43.084;25.616;2023-06-04T05:00:12;98539.69;;;16.08;100.00
41886;BME280;27567;43.084;25.616;2023-06-04T05:02:58;98551.16;;;15.92;100.00
41886;BME280;27567;43.084;25.616;2023-06-04T05:05:42;98560.94;;;16.05;100.00
41886;BME280;27567;43.084;25.616;2023-06-04T05:08:26;98562.13;;;16.09;100.00
41886;BME280;27567;43.084;25.616;2023-06-04T05:11:10;98566.31;;;15.93;100.00
41886;BME280;27567;43.084;25.616;2023-06-04T05:13:54;98565.22;;;16.13;100.00
41886;BME280;27567;43.084;25.616;2023-06-04T05:16:38;98561.44;;;16.26;100.00
41886;BME280;27567;43.084;25.616;2023-06-04T05:19:24;98563.69;;;16.52;100.00
41886;BME280;27567;43.084;25.616;2023-06-04T05:22:08;98565.94;;;16.32;100.00
41886;BME280;27567;43.084;25.616;2023-06-04T05:24:52;98575.59;;;16.63;100.00
41886;BME280;27567;43.084;25.616;2023-06-04T05:27:37;98565.94;;;16.67;100.00
41886;BME280;27567;43.084;25.616;2023-06-04T05:30:21;98573.47;;;16.42;100.00
41886;BME280;27567;43.084;25.616;2023-06-04T05:33:05;98573.13;;;16.50;100.00
41886;BME280;27567;43.084;25.616;2023-06-04T05:35:49;98574.66;;;16.81;100.00
41886;BME280;27567;43.084;25.616;2023-06-04T05:38:33;98578.53;;;17.09;100.00
41886;BME280;27567;43.084;25.616;2023-06-04T05:41:19;98578.47;;;17.33;100.00
41886;BME280;27567;43.084;25.616;2023-06-04T05:44:07;98575.78;;;17.33;100.00
41886;BME280;27567;43.084;25.616;2023-06-04T05:46:51;98584.53;;;17.11;100.00
41886;BME280;27567;43.084;25.616;2023-06-04T05:49:35;98582.38;;;17.37;100.00
41886;BME280;27567;43.084;25.616;2023-06-04T05:52:19;98595.50;;;16.93;100.00
41886;BME280;27567;43.084;25.616;2023-06-04T05:55:04;98595.25;;;16.94;100.00
41886;BME280;27567;43.084;25.616;2023-06-04T05:57:51;98599.63;;;16.95;100.00
41886;BME280;27567;43.084;25.616;2023-06-04T06:00:35;98595.81;;;17.20;100.00
41886;BME280;27567;43.084;25.616;2023-06-04T06:03:19;98594.03;;;17.26;100.00
41886;BME280;27567;43.084;25.616;2023-06-04T06:06:03;98598.88;;;17.24;100.00
41886;BME280;27567;43.084;25.616;2023-06-04T06:08:49;98601.66;;;17.41;100.00
41886;BME280;27567;43.084;25.616;2023-06-04T06:11:33;98600.63;;;17.71;100.00
41886;BME280;27567;43.084;25.616;2023-06-04T06:14:17;98602.56;;;18.16;100.00
41886;BME280;27567;43.084;25.616;2023-06-04T06:17:01;98598.63;;;18.58;100.00
41886;BME280;27567;43.084;25.616;2023-06-04T06:19:46;98599.06;;;19.06;100.00
41886;BME280;27567;43.084;25.616;2023-06-04T06:22:30;98601.22;;;19.71;100.00
41886;BME280;27567;43.084;25.616;2023-06-04T06:25:15;98600.63;;;20.46;100.00
41886;BME280;27567;43.084;25.616;2023-06-04T06:27:59;98602.59;;;21.52;100.00
41886;BME280;27567;43.084;25.616;2023-06-04T06:30:43;98601.34;;;21.75;100.00
41886;BME280;27567;43.084;25.616;2023-06-04T06:33:28;98608.34;;;21.56;100.00
41886;BME280;27567;43.084;25.616;2023-06-04T06:36:12;98607.94;;;21.26;100.00
41886;BME280;27567;43.084;25.616;2023-06-04T06:38:56;98611.72;;;21.79;100.00
41886;BME280;27567;43.084;25.616;2023-06-04T06:41:39;98613.41;;;22.00;100.00
41886;BME280;27567;43.084;25.616;2023-06-04T06:44:23;98613.03;;;21.07;100.00
41886;BME280;27567;43.084;25.616;2023-06-04T06:47:07;98610.59;;;21.64;100.00
41886;BME280;27567;43.084;25.616;2023-06-04T06:49:51;98618.84;;;21.95;100.00
41886;BME280;27567;43.084;25.616;2023-06-04T06:52:35;98626.56;;;22.65;100.00
41886;BME280;27567;43.084;25.616;2023-06-04T06:55:19;98621.75;;;21.62;100.00
41886;BME280;27567;43.084;25.616;2023-06-04T06:58:04;98627.28;;;21.88;100.00
41886;BME280;27567;43.084;25.616;2023-06-04T07:00:48;98634.94;;;21.86;100.00
41886;BME280;27567;43.084;25.616;2023-06-04T07:03:32;98630.34;;;20.53;100.00
41886;BME280;27567;43.084;25.616;2023-06-04T07:06:16;98632.44;;;20.46;100.00
41886;BME280;27567;43.084;25.616;2023-06-04T07:09:00;98627.84;;;20.46;100.00
41886;BME280;27567;43.084;25.616;2023-06-04T07:11:44;98624.66;;;20.27;100.00
41886;BME280;27567;43.084;25.616;2023-06-04T07:17:12;98642.72;;;21.09;100.00
41886;BME280;27567;43.084;25.616;2023-06-04T07:19:56;98646.63;;;20.80;100.00
41886;BME280;27567;43.084;25.616;2023-06-04T07:22:40;98643.47;;;20.94;100.00
41886;BME280;27567;43.084;25.616;2023-06-04T07:25:24;98647.25;;;20.55;100.00
41886;BME280;27567;43.084;25.616;2023-06-04T07:28:09;98653.81;;;20.92;100.00
41886;BME280;27567;43.084;25.616;2023-06-04T07:30:53;98658.06;;;20.77;100.00
41886;BME280;27567;43.084;25.616;2023-06-04T07:33:38;98651.13;;;20.64;100.00
41886;BME280;27567;43.084;25.616;2023-06-04T07:36:27;98651.72;;;20.71;100.00
41886;BME280;27567;43.084;25.616;2023-06-04T07:39:11;98650.31;;;20.31;100.00
41886;BME280;27567;43.084;25.616;2023-06-04T07:41:55;98654.81;;;19.93;100.00
41886;BME280;27567;43.084;25.616;2023-06-04T07:44:39;98653.53;;;19.78;100.00
41886;BME280;27567;43.084;25.616;2023-06-04T07:47:23;98661.22;;;20.09;100.00
41886;BME280;27567;43.084;25.616;2023-06-04T07:50:07;98660.06;;;19.77;100.00
41886;BME280;27567;43.084;25.616;2023-06-04T07:52:51;98667.72;;;19.80;100.00
41886;BME280;27567;43.084;25.616;2023-06-04T07:55:35;98666.78;;;20.19;100.00
41886;BME280;27567;43.084;25.616;2023-06-04T07:58:19;98665.63;;;21.08;100.00
41886;BME280;27567;43.084;25.616;2023-06-04T08:01:03;98666.97;;;21.58;100.00
41886;BME280;27567;43.084;25.616;2023-06-04T08:03:47;98669.63;;;22.01;100.00
41886;BME280;27567;43.084;25.616;2023-06-04T08:06:31;98677.13;;;22.84;100.00
41886;BME280;27567;43.084;25.616;2023-06-04T08:09:16;98679.50;;;23.42;100.00
41886;BME280;27567;43.084;25.616;2023-06-04T08:12:00;98671.66;;;22.94;100.00
41886;BME280;27567;43.084;25.616;2023-06-04T08:14:44;98683.41;;;22.84;100.00
41886;BME280;27567;43.084;25.616;2023-06-04T08:17:29;98685.28;;;23.20;100.00
41886;BME280;27567;43.084;25.616;2023-06-04T08:20:13;98680.41;;;23.22;100.00
41886;BME280;27567;43.084;25.616;2023-06-04T08:22:57;98681.72;;;23.35;100.00
41886;BME280;27567;43.084;25.616;2023-06-04T08:25:41;98684.75;;;23.07;100.00
41886;BME280;27567;43.084;25.616;2023-06-04T08:28:25;98691.31;;;23.11;100.00
41886;BME280;27567;43.084;25.616;2023-06-04T08:31:09;98683.09;;;23.01;100.00
41886;BME280;27567;43.084;25.616;2023-06-04T08:33:53;98684.50;;;22.78;100.00
41886;BME280;27567;43.084;25.616;2023-06-04T08:36:37;98681.63;;;23.61;100.00
41886;BME280;27567;43.084;25.616;2023-06-04T08:39:21;98687.13;;;23.55;100.00
41886;BME280;27567;43.084;25.616;2023-06-04T08:42:15;98684.44;;;24.16;100.00
41886;BME280;27567;43.084;25.616;2023-06-04T08:45:00;98688.84;;;23.25;100.00
41886;BME280;27567;43.084;25.616;2023-06-04T08:47:48;98695.13;;;23.41;100.00
41886;BME280;27567;43.084;25.616;2023-06-04T08:50:33;98687.78;;;22.75;100.00
41886;BME280;27567;43.084;25.616;2023-06-04T08:53:17;98701.97;;;22.92;100.00
41886;BME280;27567;43.084;25.616;2023-06-04T08:56:02;98701.41;;;23.37;100.00
41886;BME280;27567;43.084;25.616;2023-06-04T08:58:46;98701.63;;;23.61;100.00
41886;BME280;27567;43.084;25.616;2023-06-04T09:01:32;98703.69;;;23.95;100.00
41886;BME280;27567;43.084;25.616;2023-06-04T09:04:17;98702.66;;;23.76;100.00
41886;BME280;27567;43.084;25.616;2023-06-04T09:07:02;98711.53;;;23.36;100.00
41886;BME280;27567;43.084;25.616;2023-06-04T09:09:47;98703.34;;;23.10;100.00
41886;BME280;27567;43.084;25.616;2023-06-04T09:12:32;98710.44;;;23.42;100.00
41886;BME280;27567;43.084;25.616;2023-06-04T09:15:19;98711.25;;;23.12;100.00
41886;BME280;27567;43.084;25.616;2023-06-04T09:18:03;98709.34;;;23.38;100.00
41886;BME280;27567;43.084;25.616;2023-06-04T09:20:47;98702.22;;;24.19;100.00
41886;BME280;27567;43.084;25.616;2023-06-04T09:23:34;98704.03;;;24.79;100.00
41886;BME280;27567;43.084;25.616;2023-06-04T09:26:18;98706.28;;;25.01;100.00
41886;BME280;27567;43.084;25.616;2023-06-04T09:29:04;98703.16;;;24.43;100.00
41886;BME280;27567;43.084;25.616;2023-06-04T09:31:59;98701.34;;;24.23;100.00
41886;BME280;27567;43.084;25.616;2023-06-04T09:34:42;98702.03;;;24.50;100.00
41886;BME280;27567;43.084;25.616;2023-06-04T09:37:28;98694.47;;;24.31;100.00
41886;BME280;27567;43.084;25.616;2023-06-04T09:40:12;98701.59;;;26.28;100.00
41886;BME280;27567;43.084;25.616;2023-06-04T09:42:56;98701.25;;;26.87;100.00
41886;BME280;27567;43.084;25.616;2023-06-04T09:45:41;98697.59;;;26.73;100.00
41886;BME280;27567;43.084;25.616;2023-06-04T09:48:25;98702.38;;;26.67;100.00
41886;BME280;27567;43.084;25.616;2023-06-04T09:51:14;98701.41;;;27.57;100.00
41886;BME280;27567;43.084;25.616;2023-06-04T09:54:04;98699.56;;;26.53;100.00
41886;BME280;27567;43.084;25.616;2023-06-04T09:56:48;98708.66;;;26.34;100.00
41886;BME280;27567;43.084;25.616;2023-06-04T09:59:37;98693.78;;;27.35;100.00
41886;BME280;27567;43.084;25.616;2023-06-04T10:02:24;98701.19;;;26.16;100.00
41886;BME280;27567;43.084;25.616;2023-06-04T10:05:10;98698.44;;;27.06;100.00
41886;BME280;27567;43.084;25.616;2023-06-04T10:08:01;98700.31;;;26.59;100.00
41886;BME280;27567;43.084;25.616;2023-06-04T10:10:49;98685.75;;;27.24;100.00
41886;BME280;27567;43.084;25.616;2023-06-04T10:13:47;98693.63;;;26.98;100.00
41886;BME280;27567;43.084;25.616;2023-06-04T10:16:32;98699.69;;;27.14;100.00
41886;BME280;27567;43.084;25.616;2023-06-04T10:19:16;98694.41;;;27.18;100.00
41886;BME280;27567;43.084;25.616;2023-06-04T10:22:02;98693.53;;;26.70;100.00
41886;BME280;27567;43.084;25.616;2023-06-04T10:24:47;98698.91;;;26.23;100.00
41886;BME280;27567;43.084;25.616;2023-06-04T10:27:31;98682.91;;;25.87;100.00
41886;BME280;27567;43.084;25.616;2023-06-04T10:30:16;98694.59;;;25.73;100.00
41886;BME280;27567;43.084;25.616;2023-06-04T10:33:01;98695.94;;;26.19;100.00
41886;BME280;27567;43.084;25.616;2023-06-04T10:35:46;98694.03;;;25.95;100.00
41886;BME280;27567;43.084;25.616;2023-06-04T10:38:30;98693.31;;;26.66;100.00
41886;BME280;27567;43.084;25.616;2023-06-04T10:41:16;98687.53;;;27.76;100.00
41886;BME280;27567;43.084;25.616;2023-06-04T10:44:02;98688.31;;;28.41;100.00
41886;BME280;27567;43.084;25.616;2023-06-04T10:46:46;98688.34;;;31.13;100.00
41886;BME280;27567;43.084;25.616;2023-06-04T10:49:33;98675.56;;;31.77;100.00
41886;BME280;27567;43.084;25.616;2023-06-04T10:52:21;98669.25;;;31.29;100.00
41886;BME280;27567;43.084;25.616;2023-06-04T10:55:07;98672.75;;;34.16;99.62
41886;BME280;27567;43.084;25.616;2023-06-04T10:57:57;98674.75;;;34.73;91.08
41886;BME280;27567;43.084;25.616;2023-06-04T11:00:45;98668.88;;;34.34;92.62
41886;BME280;27567;43.084;25.616;2023-06-04T11:03:35;98666.06;;;35.35;83.40
41886;BME280;27567;43.084;25.616;2023-06-04T11:06:21;98665.00;;;37.56;73.03
41886;BME280;27567;43.084;25.616;2023-06-04T11:09:06;98666.38;;;36.76;72.11
41886;BME280;27567;43.084;25.616;2023-06-04T11:11:58;98663.56;;;37.93;68.59
41886;BME280;27567;43.084;25.616;2023-06-04T11:15:12;98669.31;;;36.24;69.43
41886;BME280;27567;43.084;25.616;2023-06-04T11:17:57;98669.41;;;34.80;77.22
41886;BME280;27567;43.084;25.616;2023-06-04T11:20:43;98680.09;;;30.78;100.00
41886;BME280;27567;43.084;25.616;2023-06-04T11:23:28;98675.09;;;30.63;100.00
41886;BME280;27567;43.084;25.616;2023-06-04T11:26:12;98673.75;;;33.00;100.00
41886;BME280;27567;43.084;25.616;2023-06-04T11:28:57;98671.00;;;32.24;100.00
41886;BME280;27567;43.084;25.616;2023-06-04T11:31:48;98679.63;;;28.71;100.00
41886;BME280;27567;43.084;25.616;2023-06-04T11:34:32;98671.41;;;27.41;100.00
41886;BME280;27567;43.084;25.616;2023-06-04T11:37:17;98676.19;;;26.89;100.00
41886;BME280;27567;43.084;25.616;2023-06-04T11:40:01;98675.03;;;27.23;100.00
41886;BME280;27567;43.084;25.616;2023-06-04T11:42:47;98682.28;;;27.33;100.00
41886;BME280;27567;43.084;25.616;2023-06-04T11:45:32;98676.69;;;26.38;100.00
41886;BME280;27567;43.084;25.616;2023-06-04T11:48:17;98667.47;;;27.98;100.00
41886;BME280;27567;43.084;25.616;2023-06-04T11:51:06;98668.25;;;29.18;100.00
41886;BME280;27567;43.084;25.616;2023-06-04T11:53:52;98660.28;;;28.25;100.00
41886;BME280;27567;43.084;25.616;2023-06-04T11:56:36;98668.28;;;28.27;100.00
41886;BME280;27567;43.084;25.616;2023-06-04T11:59:21;98663.03;;;30.50;100.00
41886;BME280;27567;43.084;25.616;2023-06-04T12:02:07;98655.75;;;31.19;100.00
41886;BME280;27567;43.084;25.616;2023-06-04T12:04:52;98655.19;;;33.63;100.00
41886;BME280;27567;43.084;25.616;2023-06-04T12:07:36;98666.63;;;34.11;94.64
41886;BME280;27567;43.084;25.616;2023-06-04T12:10:20;98663.63;;;31.47;100.00
41886;BME280;27567;43.084;25.616;2023-06-04T12:13:04;98659.09;;;30.86;100.00
41886;BME280;27567;43.084;25.616;2023-06-04T12:15:52;98665.63;;;30.11;100.00
41886;BME280;27567;43.084;25.616;2023-06-04T12:18:40;98664.31;;;32.46;100.00
41886;BME280;27567;43.084;25.616;2023-06-04T12:21:25;98651.81;;;33.32;100.00
41886;BME280;27567;43.084;25.616;2023-06-04T12:24:14;98660.28;;;33.73;97.76
41886;BME280;27567;43.084;25.616;2023-06-04T12:27:06;98660.91;;;34.60;90.00
41886;BME280;27567;43.084;25.616;2023-06-04T12:30:09;98673.09;;;34.56;93.42
41886;BME280;27567;43.084;25.616;2023-06-04T12:32:53;98665.13;;;33.26;100.00
41886;BME280;27567;43.084;25.616;2023-06-04T12:35:38;98679.59;;;30.23;100.00
41886;BME280;27567;43.084;25.616;2023-06-04T12:38:22;98674.72;;;28.90;100.00
41886;BME280;27567;43.084;25.616;2023-06-04T12:41:07;98671.66;;;30.66;100.00
41886;BME280;27567;43.084;25.616;2023-06-04T12:43:51;98668.94;;;29.32;100.00
41886;BME280;27567;43.084;25.616;2023-06-04T12:46:35;98672.63;;;28.87;100.00
41886;BME280;27567;43.084;25.616;2023-06-04T12:49:19;98676.34;;;28.69;100.00
41886;BME280;27567;43.084;25.616;2023-06-04T12:52:05;98680.00;;;27.21;100.00
41886;BME280;27567;43.084;25.616;2023-06-04T12:54:49;98667.25;;;29.14;100.00
41886;BME280;27567;43.084;25.616;2023-06-04T12:57:34;98673.50;;;29.77;100.00
41886;BME280;27567;43.084;25.616;2023-06-04T13:00:18;98664.16;;;30.22;100.00
41886;BME280;27567;43.084;25.616;2023-06-04T13:03:02;98655.72;;;32.94;100.00
41886;BME280;27567;43.084;25.616;2023-06-04T13:05:46;98666.09;;;33.93;93.38
41886;BME280;27567;43.084;25.616;2023-06-04T13:08:30;98661.91;;;33.74;94.49
41886;BME280;27567;43.084;25.616;2023-06-04T13:11:15;98673.16;;;34.31;90.76
41886;BME280;27567;43.084;25.616;2023-06-04T13:13:59;98668.50;;;33.82;94.46
41886;BME280;27567;43.084;25.616;2023-06-04T13:16:43;98664.78;;;33.78;91.34
41886;BME280;27567;43.084;25.616;2023-06-04T13:19:28;98666.25;;;35.94;78.13
41886;BME280;27567;43.084;25.616;2023-06-04T13:22:12;98660.38;;;35.63;78.06
41886;BME280;27567;43.084;25.616;2023-06-04T13:24:56;98668.47;;;35.20;78.95
41886;BME280;27567;43.084;25.616;2023-06-04T13:27:40;98663.69;;;32.41;98.56
41886;BME280;27567;43.084;25.616;2023-06-04T13:30:24;98667.09;;;32.80;94.32
41886;BME280;27567;43.084;25.616;2023-06-04T13:33:08;98664.69;;;33.62;91.30
41886;BME280;27567;43.084;25.616;2023-06-04T13:35:52;98660.94;;;33.08;92.26
41886;BME280;27567;43.084;25.616;2023-06-04T13:38:36;98662.78;;;33.16;89.64
41886;BME280;27567;43.084;25.616;2023-06-04T13:41:20;98673.31;;;34.22;83.75
41886;BME280;27567;43.084;25.616;2023-06-04T13:44:05;98673.22;;;34.59;82.42
41886;BME280;27567;43.084;25.616;2023-06-04T13:46:50;98662.09;;;33.07;88.23
41886;BME280;27567;43.084;25.616;2023-06-04T13:49:34;98663.16;;;31.45;100.00
41886;BME280;27567;43.084;25.616;2023-06-04T13:52:19;98669.28;;;29.80;100.00
41886;BME280;27567;43.084;25.616;2023-06-04T13:55:03;98672.56;;;28.19;100.00
41886;BME280;27567;43.084;25.616;2023-06-04T13:57:47;98666.00;;;26.89;100.00
41886;BME280;27567;43.084;25.616;2023-06-04T14:00:33;98668.53;;;27.88;100.00
41886;BME280;27567;43.084;25.616;2023-06-04T14:03:17;98671.22;;;28.53;100.00
41886;BME280;27567;43.084;25.616;2023-06-04T14:06:01;98676.09;;;27.83;100.00
41886;BME280;27567;43.084;25.616;2023-06-04T14:08:45;98670.44;;;26.14;100.00
41886;BME280;27567;43.084;25.616;2023-06-04T14:11:29;98678.81;;;24.76;100.00
41886;BME280;27567;43.084;25.616;2023-06-04T14:14:13;98671.34;;;24.48;100.00
41886;BME280;27567;43.084;25.616;2023-06-04T14:16:57;98676.06;;;24.37;100.00
41886;BME280;27567;43.084;25.616;2023-06-04T14:19:41;98665.16;;;23.81;100.00
41886;BME280;27567;43.084;25.616;2023-06-04T14:22:25;98679.97;;;23.65;100.00
41886;BME280;27567;43.084;25.616;2023-06-04T14:25:09;98670.66;;;23.66;100.00
41886;BME280;27567;43.084;25.616;2023-06-04T14:27:54;98675.00;;;23.82;100.00